createdAt,value
2017-12-02T00:00:32.834Z,57.90
2017-12-02T00:03:01.126Z,57.20
2017-12-02T00:05:28.656Z,57.10
2017-12-02T00:07:56.187Z,57.00
2017-12-02T00:10:23.690Z,56.90
2017-12-02T00:12:51.227Z,56.70
2017-12-02T00:15:18.726Z,56.70
2017-12-02T00:17:46.218Z,56.70
2017-12-02T00:20:13.731Z,56.70
2017-12-02T00:22:41.994Z,56.80
2017-12-02T00:25:10.282Z,56.80
2017-12-02T00:27:38.543Z,57.00
2017-12-02T00:30:06.062Z,56.90
2017-12-02T00:32:33.558Z,57.10
2017-12-02T00:35:01.083Z,57.10
2017-12-02T00:37:29.349Z,57.20
2017-12-02T00:39:56.882Z,57.20
2017-12-02T00:42:25.199Z,57.30
2017-12-02T00:44:52.722Z,57.20
2017-12-02T00:47:20.994Z,57.30
2017-12-02T00:49:49.295Z,57.50
2017-12-02T00:52:16.799Z,57.40
2017-12-02T00:54:44.314Z,57.50
2017-12-02T00:57:11.865Z,57.40
2017-12-02T00:59:39.366Z,57.30
2017-12-02T01:02:06.886Z,57.30
2017-12-02T01:04:34.389Z,57.80
2017-12-02T01:07:01.906Z,57.20
2017-12-02T01:09:29.404Z,57.10
2017-12-02T01:11:56.930Z,57.20
2017-12-02T01:14:24.423Z,57.30
2017-12-02T01:16:51.973Z,57.10
2017-12-02T01:19:19.465Z,57.10
2017-12-02T01:21:47.746Z,57.10
2017-12-02T01:24:15.242Z,57.10
2017-12-02T01:26:42.769Z,57.10
2017-12-02T01:29:10.266Z,57.10
2017-12-02T01:31:37.771Z,57.10
2017-12-02T01:34:05.290Z,57.10
2017-12-02T01:36:32.793Z,57.10
2017-12-02T01:39:01.083Z,56.60
2017-12-02T01:41:28.587Z,57.00
2017-12-02T01:43:56.102Z,57.10
2017-12-02T01:46:24.371Z,57.40
2017-12-02T01:48:52.666Z,57.50
2017-12-02T01:51:20.183Z,57.40
2017-12-02T01:53:47.736Z,57.70
2017-12-02T01:56:15.243Z,57.80
2017-12-02T01:58:42.754Z,57.90
2017-12-02T02:01:10.786Z,58.00
2017-12-02T02:03:38.282Z,58.10
2017-12-02T02:06:05.879Z,58.10
2017-12-02T02:08:33.376Z,58.20
2017-12-02T02:11:00.911Z,58.20
2017-12-02T02:13:28.440Z,58.20
2017-12-02T02:15:55.971Z,58.30
2017-12-02T02:18:23.479Z,58.30
2017-12-02T02:20:51.011Z,58.30
2017-12-02T02:23:18.543Z,58.20
2017-12-02T02:25:46.080Z,58.20
2017-12-02T02:28:13.635Z,58.20
2017-12-02T02:30:41.906Z,58.30
2017-12-02T02:33:09.412Z,58.00
2017-12-02T02:35:36.928Z,58.20
2017-12-02T02:38:04.451Z,58.20
2017-12-02T02:40:31.956Z,58.20
2017-12-02T02:42:59.477Z,58.20
2017-12-02T02:45:27.752Z,58.20
2017-12-02T02:47:56.055Z,58.10
2017-12-02T02:50:23.563Z,58.00
2017-12-02T02:52:51.079Z,58.00
2017-12-02T02:55:18.616Z,58.00
2017-12-02T02:57:46.923Z,57.90
2017-12-02T03:00:14.418Z,57.80
2017-12-02T03:02:41.943Z,57.80
2017-12-02T03:05:09.446Z,57.90
2017-12-02T03:07:36.983Z,58.00
2017-12-02T03:10:04.503Z,57.90
2017-12-02T03:12:32.034Z,57.90
2017-12-02T03:14:59.539Z,57.80
2017-12-02T03:17:27.835Z,57.70
2017-12-02T03:19:55.349Z,57.70
2017-12-02T03:22:23.651Z,57.70
2017-12-02T03:24:51.147Z,57.70
2017-12-02T03:27:18.707Z,57.70
2017-12-02T03:29:46.238Z,57.70
2017-12-02T03:32:13.743Z,57.70
2017-12-02T03:34:41.289Z,57.70
2017-12-02T03:37:08.803Z,57.70
2017-12-02T03:39:36.334Z,57.60
2017-12-02T03:42:04.596Z,57.60
2017-12-02T03:44:32.118Z,57.60
2017-12-02T03:46:59.691Z,57.60
2017-12-02T03:49:27.214Z,57.60
2017-12-02T03:51:54.716Z,57.50
2017-12-02T03:54:22.256Z,57.50
2017-12-02T03:56:49.770Z,57.50
2017-12-02T03:59:18.057Z,57.50
2017-12-02T04:01:45.576Z,57.40
2017-12-02T04:04:13.089Z,57.40
2017-12-02T04:06:40.629Z,57.40
2017-12-02T04:09:08.898Z,57.40
2017-12-02T04:11:37.197Z,57.40
2017-12-02T04:14:04.716Z,57.40
2017-12-02T04:16:32.298Z,57.40
2017-12-02T04:18:59.783Z,57.40
2017-12-02T04:21:27.316Z,57.40
2017-12-02T04:23:55.588Z,57.50
2017-12-02T04:26:23.890Z,57.40
2017-12-02T04:28:51.403Z,57.30
2017-12-02T04:31:18.943Z,57.30
2017-12-02T04:33:46.471Z,57.20
2017-12-02T04:36:13.977Z,57.20
2017-12-02T04:38:41.515Z,57.20
2017-12-02T04:41:09.023Z,57.20
2017-12-02T04:43:36.559Z,57.30
2017-12-02T04:46:04.076Z,57.30
2017-12-02T04:48:31.639Z,57.20
2017-12-02T04:50:59.154Z,57.10
2017-12-02T04:53:26.691Z,57.10
2017-12-02T04:55:54.218Z,57.10
2017-12-02T04:58:21.764Z,57.10
2017-12-02T05:00:49.269Z,57.10
2017-12-02T05:03:16.798Z,57.10
2017-12-02T05:05:44.298Z,57.00
2017-12-02T05:08:11.830Z,57.10
2017-12-02T05:10:39.342Z,56.90
2017-12-02T05:13:07.654Z,56.90
2017-12-02T05:15:35.174Z,56.90
2017-12-02T05:18:03.483Z,56.90
2017-12-02T05:20:31.111Z,56.80
2017-12-02T05:22:58.736Z,56.40
2017-12-02T05:25:26.310Z,56.20
2017-12-02T05:27:53.828Z,56.00
2017-12-02T05:30:21.359Z,55.80
2017-12-02T05:32:49.639Z,55.40
2017-12-02T05:35:17.167Z,55.30
2017-12-02T05:37:44.678Z,55.20
2017-12-02T05:40:12.228Z,55.20
2017-12-02T05:42:39.744Z,55.30
2017-12-02T05:45:07.500Z,55.20
2017-12-02T05:47:35.043Z,55.20
2017-12-02T05:50:02.547Z,55.20
2017-12-02T05:52:30.851Z,55.10
2017-12-02T05:54:58.410Z,55.10
2017-12-02T05:57:25.940Z,55.10
2017-12-02T05:59:54.211Z,55.30
2017-12-02T06:02:21.736Z,55.20
2017-12-02T06:04:49.234Z,55.00
2017-12-02T06:07:17.520Z,55.30
2017-12-02T06:09:45.816Z,55.00
2017-12-02T06:12:13.372Z,55.00
2017-12-02T06:14:40.884Z,55.00
2017-12-02T06:17:08.398Z,55.00
2017-12-02T06:19:35.898Z,54.90
2017-12-02T06:22:03.423Z,55.00
2017-12-02T06:24:30.930Z,55.00
2017-12-02T06:26:58.452Z,55.00
2017-12-02T06:29:25.993Z,55.00
2017-12-02T06:31:53.659Z,54.90
2017-12-02T06:34:21.187Z,54.90
2017-12-02T06:36:49.470Z,55.10
2017-12-02T06:39:17.012Z,54.90
2017-12-02T06:41:44.514Z,55.00
2017-12-02T06:44:12.046Z,55.00
2017-12-02T06:46:40.328Z,55.10
2017-12-02T06:49:08.635Z,55.10
2017-12-02T06:51:36.143Z,55.00
2017-12-02T06:54:03.679Z,55.10
2017-12-02T06:56:31.192Z,55.10
2017-12-02T06:58:58.715Z,55.10
2017-12-02T07:01:26.232Z,55.20
2017-12-02T07:03:53.770Z,55.20
2017-12-02T07:06:21.282Z,55.10
2017-12-02T07:08:48.804Z,55.20
2017-12-02T07:11:16.318Z,55.30
2017-12-02T07:13:43.830Z,55.30
2017-12-02T07:16:11.330Z,55.50
2017-12-02T07:18:38.852Z,55.50
2017-12-02T07:21:06.345Z,55.50
2017-12-02T07:23:33.867Z,55.50
2017-12-02T07:26:01.366Z,55.60
2017-12-02T07:28:28.890Z,55.60
2017-12-02T07:30:56.394Z,55.70
2017-12-02T07:33:24.686Z,56.40
2017-12-02T07:35:52.951Z,55.80
2017-12-02T07:38:21.346Z,55.70
2017-12-02T07:40:48.885Z,55.60
2017-12-02T07:43:16.411Z,55.60
2017-12-02T07:45:43.919Z,55.70
2017-12-02T07:48:11.434Z,55.60
2017-12-02T07:50:38.938Z,55.50
2017-12-02T07:53:07.227Z,55.70
2017-12-02T07:55:34.742Z,55.60
2017-12-02T07:58:02.921Z,55.70
2017-12-02T08:00:30.478Z,55.70
2017-12-02T08:02:57.995Z,56.30
2017-12-02T08:05:25.530Z,55.80
2017-12-02T08:07:53.797Z,55.80
2017-12-02T08:10:22.062Z,56.00
2017-12-02T08:12:50.355Z,56.00
2017-12-02T08:15:18.630Z,56.00
2017-12-02T08:17:46.909Z,56.10
2017-12-02T08:20:15.186Z,56.00
2017-12-02T08:22:43.486Z,56.00
2017-12-02T08:25:11.830Z,55.80
2017-12-02T08:27:40.100Z,56.60
2017-12-02T08:30:07.627Z,55.90
2017-12-02T08:32:35.138Z,56.00
2017-12-02T08:35:03.432Z,56.10
2017-12-02T08:37:30.948Z,56.00
2017-12-02T08:39:58.494Z,56.00
2017-12-02T08:42:26.003Z,56.10
2017-12-02T08:44:53.515Z,56.20
2017-12-02T08:47:21.031Z,56.20
2017-12-02T08:49:48.542Z,56.10
2017-12-02T08:52:16.067Z,56.10
2017-12-02T08:54:43.567Z,56.10
2017-12-02T08:57:11.087Z,56.20
2017-12-02T08:59:38.594Z,56.20
2017-12-02T09:02:06.135Z,56.20
2017-12-02T09:04:33.650Z,56.10
2017-12-02T09:07:01.155Z,55.90
2017-12-02T09:09:28.686Z,55.90
2017-12-02T09:11:56.185Z,56.00
2017-12-02T09:14:23.723Z,55.90
2017-12-02T09:16:51.235Z,55.70
2017-12-02T09:19:18.752Z,55.70
2017-12-02T09:21:46.265Z,55.70
2017-12-02T09:24:13.811Z,55.60
2017-12-02T09:26:41.322Z,55.50
2017-12-02T09:29:08.827Z,55.50
2017-12-02T09:31:36.351Z,55.30
2017-12-02T09:34:03.863Z,55.20
2017-12-02T09:36:31.381Z,55.10
2017-12-02T09:38:58.940Z,55.00
2017-12-02T09:41:26.414Z,55.00
2017-12-02T09:43:54.671Z,55.00
2017-12-02T09:46:22.982Z,54.90
2017-12-02T09:48:50.488Z,54.80
2017-12-02T09:51:17.985Z,54.80
2017-12-02T09:53:46.278Z,54.80
2017-12-02T09:56:13.783Z,54.80
2017-12-02T09:58:41.306Z,55.30
2017-12-02T10:01:08.815Z,54.80
2017-12-02T10:03:37.122Z,55.40
2017-12-02T10:06:04.639Z,54.80
2017-12-02T10:08:32.174Z,54.40
2017-12-02T10:10:59.679Z,54.20
2017-12-02T10:13:27.949Z,54.30
2017-12-02T10:15:55.474Z,54.20
2017-12-02T10:18:22.971Z,53.60
2017-12-02T10:20:51.262Z,54.10
2017-12-02T10:23:19.536Z,54.20
2017-12-02T10:25:47.404Z,54.10
2017-12-02T10:28:15.670Z,53.70
2017-12-02T10:30:43.206Z,53.60
2017-12-02T10:33:10.726Z,53.40
2017-12-02T10:35:38.289Z,53.20
2017-12-02T10:38:05.879Z,52.80
2017-12-02T10:40:33.402Z,52.80
2017-12-02T10:43:00.953Z,52.70
2017-12-02T10:45:28.468Z,52.40
2017-12-02T10:47:55.995Z,52.30
2017-12-02T10:50:23.507Z,52.40
2017-12-02T10:52:51.807Z,52.40
2017-12-02T10:55:19.373Z,52.30
2017-12-02T10:57:46.910Z,52.10
2017-12-02T11:00:15.197Z,51.90
2017-12-02T11:02:43.507Z,51.60
2017-12-02T11:05:11.007Z,51.50
2017-12-02T11:07:38.522Z,51.30
2017-12-02T11:10:06.052Z,51.60
2017-12-02T11:12:34.327Z,51.50
2017-12-02T11:15:01.858Z,51.40
2017-12-02T11:17:29.363Z,51.80
2017-12-02T11:19:56.890Z,51.70
2017-12-02T11:22:24.390Z,51.60
2017-12-02T11:24:51.915Z,51.60
2017-12-02T11:27:20.187Z,51.50
2017-12-02T11:29:48.461Z,51.20
2017-12-02T11:32:15.966Z,51.20
2017-12-02T11:34:43.474Z,51.30
2017-12-02T11:37:10.992Z,51.40
2017-12-02T11:39:38.510Z,51.40
2017-12-02T11:42:06.789Z,51.00
2017-12-02T11:44:34.300Z,51.00
2017-12-02T11:47:01.853Z,50.70
2017-12-02T11:49:29.367Z,50.90
2017-12-02T11:51:57.655Z,51.10
2017-12-02T11:54:25.171Z,51.10
2017-12-02T11:56:52.703Z,51.10
2017-12-02T11:59:20.218Z,51.20
2017-12-02T12:01:48.535Z,51.00
2017-12-02T12:04:16.051Z,51.00
2017-12-02T12:06:44.331Z,50.70
2017-12-02T12:09:12.618Z,50.70
2017-12-02T12:11:40.140Z,50.60
2017-12-02T12:14:07.705Z,50.50
2017-12-02T12:16:35.194Z,50.30
2017-12-02T12:19:02.712Z,50.50
2017-12-02T12:21:30.220Z,50.50
2017-12-02T12:23:57.757Z,50.10
2017-12-02T12:26:26.039Z,50.40
2017-12-02T12:28:54.358Z,50.30
2017-12-02T12:31:22.329Z,50.20
2017-12-02T12:33:49.831Z,49.10
2017-12-02T12:36:17.351Z,49.00
2017-12-02T12:38:44.868Z,49.20
2017-12-02T12:41:12.415Z,49.30
2017-12-02T12:43:40.687Z,48.80
2017-12-02T12:46:08.203Z,48.70
2017-12-02T12:48:35.717Z,48.00
2017-12-02T12:51:04.019Z,48.80
2017-12-02T12:53:31.534Z,48.80
2017-12-02T12:55:59.066Z,49.00
2017-12-02T12:58:26.577Z,48.90
2017-12-02T13:00:54.878Z,49.10
2017-12-02T13:03:22.403Z,49.10
2017-12-02T13:05:50.723Z,48.80
2017-12-02T13:08:18.233Z,48.80
2017-12-02T13:10:45.734Z,48.30
2017-12-02T13:13:13.264Z,48.30
2017-12-02T13:15:41.542Z,47.90
2017-12-02T13:18:09.826Z,48.10
2017-12-02T13:20:37.342Z,48.00
2017-12-02T13:23:04.873Z,48.30
2017-12-02T13:25:32.386Z,48.60
2017-12-02T13:27:59.941Z,48.40
2017-12-02T13:30:27.444Z,48.50
2017-12-02T13:32:54.961Z,48.90
2017-12-02T13:35:22.484Z,48.60
2017-12-02T13:37:49.998Z,48.90
2017-12-02T13:40:18.282Z,49.20
2017-12-02T13:42:45.791Z,49.10
2017-12-02T13:45:13.310Z,49.00
2017-12-02T13:47:40.827Z,49.00
2017-12-02T13:50:08.354Z,49.00
2017-12-02T13:52:35.888Z,48.90
2017-12-02T13:55:03.417Z,49.00
2017-12-02T13:57:31.703Z,49.00
2017-12-02T13:59:59.970Z,49.00
2017-12-02T14:02:28.246Z,49.30
2017-12-02T14:04:55.771Z,49.10
2017-12-02T14:07:23.294Z,49.10
2017-12-02T14:09:50.799Z,48.80
2017-12-02T14:12:18.313Z,48.50
2017-12-02T14:14:45.814Z,48.80
2017-12-02T14:17:13.329Z,49.10
2017-12-02T14:19:40.832Z,49.00
2017-12-02T14:22:08.350Z,49.00
2017-12-02T14:24:35.878Z,48.60
2017-12-02T14:27:04.146Z,48.70
2017-12-02T14:29:31.676Z,48.70
2017-12-02T14:31:59.202Z,48.60
2017-12-02T14:34:26.722Z,48.50
2017-12-02T14:36:54.223Z,48.60
2017-12-02T14:39:21.863Z,48.90
2017-12-02T14:41:49.394Z,48.70
2017-12-02T14:44:16.921Z,48.70
2017-12-02T14:46:44.424Z,49.00
2017-12-02T14:49:12.729Z,49.10
2017-12-02T14:51:40.227Z,49.10
2017-12-02T14:54:07.782Z,48.60
2017-12-02T14:56:35.280Z,48.30
2017-12-02T14:59:02.820Z,48.40
2017-12-02T15:01:30.332Z,48.60
2017-12-02T15:03:57.897Z,48.50
2017-12-02T15:06:25.398Z,48.70
2017-12-02T15:08:52.898Z,48.90
2017-12-02T15:11:21.183Z,49.70
2017-12-02T15:13:48.689Z,49.20
2017-12-02T15:16:16.223Z,49.30
2017-12-02T15:18:43.723Z,49.40
2017-12-02T15:21:11.243Z,49.40
2017-12-02T15:23:38.793Z,49.60
2017-12-02T15:26:06.305Z,49.80
2017-12-02T15:28:33.808Z,50.00
2017-12-02T15:31:01.346Z,49.90
2017-12-02T15:33:29.622Z,49.80
2017-12-02T15:35:57.922Z,49.80
2017-12-02T15:38:25.439Z,49.80
2017-12-02T15:40:52.939Z,49.90
2017-12-02T15:43:20.455Z,50.20
2017-12-02T15:45:48.012Z,49.70
2017-12-02T15:48:15.533Z,49.70
2017-12-02T15:50:43.035Z,49.50
2017-12-02T15:53:10.571Z,49.40
2017-12-02T15:55:38.142Z,49.50
2017-12-02T15:58:05.658Z,49.60
2017-12-02T16:00:36.858Z,50.00
2017-12-02T16:03:04.408Z,50.00
2017-12-02T16:05:31.922Z,49.90
2017-12-02T16:07:59.414Z,50.00
2017-12-02T16:10:26.938Z,50.10
2017-12-02T16:12:54.462Z,50.20
2017-12-02T16:15:22.741Z,49.80
2017-12-02T16:17:50.309Z,49.80
2017-12-02T16:20:18.614Z,50.00
2017-12-02T16:22:46.142Z,50.60
2017-12-02T16:25:14.431Z,50.20
2017-12-02T16:27:41.998Z,50.10
2017-12-02T16:30:09.499Z,50.20
2017-12-02T16:32:37.017Z,50.30
2017-12-02T16:35:04.518Z,50.30
2017-12-02T16:37:32.036Z,50.40
2017-12-02T16:39:59.555Z,50.50
2017-12-02T16:42:27.071Z,50.40
2017-12-02T16:44:54.592Z,50.40
2017-12-02T16:47:22.873Z,50.50
2017-12-02T16:49:50.373Z,50.50
2017-12-02T16:52:17.907Z,50.70
2017-12-02T16:54:45.428Z,50.80
2017-12-02T16:57:12.927Z,50.80
2017-12-02T16:59:40.453Z,50.80
2017-12-02T17:02:07.960Z,50.70
2017-12-02T17:04:35.495Z,51.10
2017-12-02T17:07:03.023Z,50.60
2017-12-02T17:09:30.543Z,50.70
2017-12-02T17:11:58.044Z,50.60
2017-12-02T17:14:25.561Z,50.60
2017-12-02T17:16:53.066Z,50.60
2017-12-02T17:19:20.640Z,50.70
2017-12-02T17:21:48.146Z,50.60
2017-12-02T17:24:15.647Z,50.60
2017-12-02T17:26:43.983Z,50.30
2017-12-02T17:29:11.475Z,50.40
2017-12-02T17:31:38.999Z,50.50
2017-12-02T17:34:06.499Z,50.30
2017-12-02T17:36:34.018Z,50.30
2017-12-02T17:39:01.527Z,50.40
2017-12-02T17:41:29.810Z,50.40
2017-12-02T17:43:58.075Z,50.30
2017-12-02T17:46:26.415Z,50.30
2017-12-02T17:48:53.929Z,50.20
2017-12-02T17:51:21.473Z,50.30
2017-12-02T17:53:49.752Z,50.50
2017-12-02T17:56:18.027Z,50.60
2017-12-02T17:58:46.320Z,50.50
2017-12-02T18:01:13.827Z,50.50
2017-12-02T18:03:41.363Z,50.40
2017-12-02T18:06:08.873Z,50.30
2017-12-02T18:08:36.713Z,49.90
2017-12-02T18:11:04.539Z,49.00
2017-12-02T18:13:32.068Z,49.20
2017-12-02T18:15:59.572Z,49.30
2017-12-02T18:18:27.130Z,49.60
2017-12-02T18:20:54.642Z,49.80
2017-12-02T18:23:22.310Z,50.00
2017-12-02T18:25:49.827Z,50.20
2017-12-02T18:28:17.374Z,50.20
2017-12-02T18:30:45.034Z,50.20
2017-12-02T18:33:12.532Z,50.10
2017-12-02T18:35:40.065Z,49.90
2017-12-02T18:38:07.565Z,49.90
2017-12-02T18:40:35.086Z,49.80
2017-12-02T18:43:02.594Z,49.60
2017-12-02T18:45:30.881Z,49.50
2017-12-02T18:47:59.137Z,49.30
2017-12-02T18:50:26.650Z,49.30
2017-12-02T18:52:54.147Z,49.10
2017-12-02T18:55:21.730Z,49.10
2017-12-02T18:57:50.003Z,49.30
2017-12-02T19:00:18.288Z,49.50
2017-12-02T19:02:45.830Z,49.40
2017-12-02T19:05:13.336Z,49.40
2017-12-02T19:07:40.938Z,49.40
2017-12-02T19:10:08.434Z,49.50
2017-12-02T19:12:35.950Z,49.70
2017-12-02T19:15:03.449Z,49.80
2017-12-02T19:17:30.986Z,50.00
2017-12-02T19:19:59.309Z,50.40
2017-12-02T19:22:26.823Z,50.00
2017-12-02T19:24:54.347Z,50.00
2017-12-02T19:27:21.850Z,49.80
2017-12-02T19:29:49.364Z,49.80
2017-12-02T19:32:16.873Z,49.70
2017-12-02T19:34:45.149Z,49.50
2017-12-02T19:37:12.655Z,49.40
2017-12-02T19:39:40.170Z,49.30
2017-12-02T19:42:08.447Z,49.10
2017-12-02T19:44:36.787Z,49.20
2017-12-02T19:47:04.287Z,49.20
2017-12-02T19:49:31.811Z,49.30
2017-12-02T19:51:59.330Z,49.30
2017-12-02T19:54:26.835Z,49.20
2017-12-02T19:56:54.364Z,49.30
2017-12-02T19:59:21.883Z,49.30
2017-12-02T20:01:49.449Z,49.50
2017-12-02T20:04:17.702Z,49.30
2017-12-02T20:06:45.219Z,49.20
2017-12-02T20:09:12.722Z,49.20
2017-12-02T20:11:40.238Z,49.20
2017-12-02T20:14:07.742Z,49.40
2017-12-02T20:16:35.369Z,49.20
2017-12-02T20:19:02.870Z,49.20
2017-12-02T20:21:30.370Z,49.20
2017-12-02T20:23:57.881Z,49.10
2017-12-02T20:26:25.390Z,49.10
2017-12-02T20:28:52.910Z,49.20
2017-12-02T20:31:21.213Z,49.10
2017-12-02T20:33:48.723Z,49.10
2017-12-02T20:36:17.002Z,48.60
2017-12-02T20:38:44.582Z,49.00
2017-12-02T20:41:12.842Z,49.10
2017-12-02T20:43:40.353Z,49.10
2017-12-02T20:46:07.846Z,49.00
2017-12-02T20:48:35.368Z,49.20
2017-12-02T20:51:02.921Z,49.30
2017-12-02T20:53:30.450Z,49.30
2017-12-02T20:55:57.952Z,49.50
2017-12-02T20:58:25.441Z,49.50
2017-12-02T21:00:52.954Z,49.60
2017-12-02T21:03:20.452Z,49.70
2017-12-02T21:05:47.988Z,49.80
2017-12-02T21:08:15.532Z,49.70
2017-12-02T21:10:43.049Z,49.40
2017-12-02T21:13:10.541Z,49.40
2017-12-02T21:15:38.067Z,49.70
2017-12-02T21:18:05.566Z,49.60
2017-12-02T21:20:33.086Z,49.50
2017-12-02T21:23:00.586Z,49.40
2017-12-02T21:25:28.119Z,49.30
2017-12-02T21:27:55.621Z,49.40
2017-12-02T21:30:23.121Z,49.30
2017-12-02T21:32:50.638Z,49.40
2017-12-02T21:35:18.134Z,49.50
2017-12-02T21:37:45.655Z,49.30
2017-12-02T21:40:13.146Z,49.20
2017-12-02T21:42:40.658Z,49.10
2017-12-02T21:45:08.170Z,49.00
2017-12-02T21:47:35.709Z,49.10
2017-12-02T21:50:03.210Z,49.10
2017-12-02T21:52:31.499Z,49.40
2017-12-02T21:54:59.002Z,49.30
2017-12-02T21:57:26.556Z,49.40
2017-12-02T21:59:54.050Z,49.30
2017-12-02T22:02:21.584Z,48.80
2017-12-02T22:04:49.099Z,48.80
2017-12-02T22:07:16.595Z,48.60
2017-12-02T22:09:44.102Z,48.30
2017-12-02T22:12:12.363Z,48.10
2017-12-02T22:14:40.646Z,48.10
2017-12-02T22:17:08.906Z,48.20
2017-12-02T22:19:36.438Z,48.20
2017-12-02T22:22:03.935Z,48.20
2017-12-02T22:24:32.225Z,48.00
2017-12-02T22:27:00.491Z,48.00
2017-12-02T22:29:28.766Z,48.10
2017-12-02T22:31:57.033Z,48.70
2017-12-02T22:34:24.558Z,48.00
2017-12-02T22:36:52.063Z,48.00
2017-12-02T22:39:19.560Z,47.90
2017-12-02T22:41:47.071Z,48.00
2017-12-02T22:44:14.563Z,48.20
2017-12-02T22:46:42.091Z,49.00
2017-12-02T22:49:10.359Z,48.70
2017-12-02T22:51:37.903Z,48.60
2017-12-02T22:54:05.400Z,48.80
2017-12-02T22:56:32.920Z,48.70
2017-12-02T22:59:00.419Z,48.40
2017-12-02T23:01:28.724Z,48.20
2017-12-02T23:03:56.218Z,48.20
2017-12-02T23:06:23.710Z,48.20
2017-12-02T23:08:51.999Z,48.60
2017-12-02T23:11:19.490Z,48.50
2017-12-02T23:13:47.005Z,48.50
2017-12-02T23:16:15.266Z,48.70
2017-12-02T23:18:42.805Z,48.60
2017-12-02T23:21:10.314Z,49.20
2017-12-02T23:23:37.833Z,48.50
2017-12-02T23:26:05.332Z,48.50
2017-12-02T23:28:32.906Z,48.60
2017-12-02T23:31:00.409Z,48.50
2017-12-02T23:33:27.921Z,48.30
2017-12-02T23:35:55.419Z,48.30
2017-12-02T23:38:22.972Z,48.30
2017-12-02T23:40:50.468Z,48.10
2017-12-02T23:43:18.722Z,48.10
2017-12-02T23:45:46.238Z,48.00
2017-12-02T23:48:13.731Z,48.00
2017-12-02T23:50:41.253Z,47.90
2017-12-02T23:53:08.813Z,47.80
2017-12-02T23:55:36.325Z,47.70
2017-12-02T23:58:03.826Z,47.80
